Well Details
Well Information

03721277

Porter

32A

Los Angeles [037]

2

Southern California Gas Company [S4700]

Aliso Canyon [010]

Any Area [00]

27

03N

16W

SB

Active

GS, OG


gps

83

34.312552

-118.550575

map

Well Records

File Name Type Size Modified on
 
 03721277_P 32A_PTEST_07-31-2017.xlsx Excel 23.00 KB 8/3/2017
 03721277_P 32A_PTEST_02-02-2017.xls Excel 74.00 KB 3/8/2017
 03721277_P 32A_Noise_02-13-2017.csv csv 19.00 KB 2/21/2017
 03721277_P 32A_Temp_02-13-2017.PDF PDF 226.00 KB 2/21/2017
 03721277_P 32A_Noise_02-13-2017.PDF PDF 2.00 MB 2/21/2017
 03721277_P 32A_Noise_02-13-2017.LAS Text 1.00 MB 2/21/2017
 03721277_DATA_03-19-2008.pdf PDF 12.00 MB 2/13/2017
 03721277_P 32A_PTEST_08-11-2016.xls Excel 70.00 KB 8/23/2016
 03721277_v.pdf PDF 226.00 KB 8/5/2016
 03721277.pdf PDF 259.00 KB 8/5/2016
 03721277_Derived Porosity_10-2-1972.tif TIF 214.00 KB 8/3/2016
 03721277_Derived Porosity_10-2-1972.tif TIF 214.00 KB 8/3/2016
 03721277_porosity Overlay_9-29-1972.tif TIF 223.00 KB 8/3/2016
 03721277_porosity Overlay_9-29-1972.tif TIF 223.00 KB 8/3/2016
 03721277_Sandstone Analysis_9-29-1972.tif TIF 252.00 KB 8/3/2016
 03721277_Sandstone Analysis_9-29-1972.tif TIF 252.00 KB 8/3/2016
 03721277_Temperature and Noise Log_10-2-1986.tif TIF 1.00 MB 8/3/2016
 03721277_Temperature and Noise Log_10-2-1986.tif TIF 1.00 MB 8/3/2016
 03721277_Neutron Lifetime Log_10-28-1972.tif TIF 3.00 MB 8/3/2016
 03721277_Neutron Lifetime Log_10-28-1972.tif TIF 3.00 MB 8/3/2016
 03721277_Noise_03-23-2016.pdf PDF 2.00 MB 3/25/2016
 03721277_Noise_03-23-2016.LAS Text 1.00 MB 3/25/2016
 03721277_Temp_03-23-2016.pdf PDF 684.00 KB 3/25/2016
 03721277_Survey_Temperature_10-08-2015(P32A).pdf PDF 613.00 KB 1/7/2016
 03721277_Survey_Temperature_09-11-2014(P32A).pdf PDF 68.00 KB 9/22/2014
 03721277_Survey_Temperature_09-05-2013(P32A).pdf PDF 264.00 KB 9/13/2013
 03721277_Survey_Temperature_09-26-2012(P32A).pdf PDF 75.00 KB 10/1/2012
 03721277_Survey_Temperature_08-15-2011.pdf PDF 95.00 KB 3/15/2012
 03721277_Survey_Temperature_08-15-2011(P32A).pdf PDF 95.00 KB 8/22/2011
 03721277_Survey_Temperature_08-03-2010(P32A).pdf PDF 42.00 KB 8/12/2010
 03721277_Survey_Temperature_07-12-2010(P32A).pdf PDF 41.00 KB 7/27/2010
 03721277_TEMPERATURE_09-21-2009.pdf PDF 157.00 KB 9/23/2009
 03721277_Temperature_9-13-2006.tif TIF 61.00 KB 6/23/2009
 03721277_Temperature_11-20-2004.tif TIF 60.00 KB 6/23/2009
 03721277_Temperature_8-11-2004.tif TIF 60.00 KB 6/23/2009
 03721277_Pressure Survey_9-13-2006.tif TIF 66.00 KB 6/23/2009
 03721277_PRESSURE_TEMPERATURE_09-23-2008.pdf PDF 46.00 KB 10/1/2008
 03721277_Temperature_3-20-2000.tif TIF 41.00 KB 8/2/2008
 03721277_Temperature_12-22-1998.tif TIF 77.00 KB 8/2/2008
 03721277_Temperature_9-26-2001.tif TIF 57.00 KB 8/2/2008
 03721277_Temperature_8-30-1994.tif TIF 161.00 KB 4/27/2008
 03721277_Dual Spacing Thermal Neutron Decay Time_8-17-1978.tif TIF 3.00 MB 8/12/2007
 03721277_Sidewall Neutron Gamma Ray Log_8-30-1972.tif TIF 135.00 KB 8/12/2007
 03721277_Neutron Lifetime Log_9-6-1972.tif TIF 328.00 KB 8/12/2007
 03721277_Compensated Densilog_10-28-1972.tif TIF 242.00 KB 8/12/2007
 03721277_Cased Reservoir Analysis_8-17-1978.tif TIF 2.00 MB 7/5/2007
 03721277_TDT Computation_8-17-1978.tif TIF 2.00 MB 7/5/2007
 03721277_Combination Induction Electrolog BHC Acoustilog_8-30-1972.tif TIF 856.00 KB 5/18/2007


Production Data


Date Oil(bbl) Water(bbl) Gas(Mcf) Days Producing Gravity Csg Tbg BTU MO Disp PWT Status Well Type Status Pool Code Sum Row
Date Oil(bbl) Water(bbl) Gas(Mcf) Days Producing Gravity Csg Tbg BTU MO Disp PWT Status Well Type Status Pool Code Sum Row


Injection Data


Date Water/Steam(bbl) Gas/Air(Mcf) Days Injecting Pressure Water Source Water Kind PWT Status Well Type Status Pool Code Sum Row
Date Water/Steam(bbl) Gas/Air(Mcf) Days Injecting Pressure Water Source Water Kind PWT Status Well Type Status Pool Code Sum Row



Production Charts



Injection Charts